createdAt,value
2023-05-19T00:01:01.845Z,101444.41
2023-05-19T00:03:29.236Z,101451.31
2023-05-19T00:05:58.789Z,101452.38
2023-05-19T00:08:26.730Z,101452.78
2023-05-19T00:10:54.870Z,101444.28
2023-05-19T00:13:23.448Z,101447.00
2023-05-19T00:15:56.222Z,101441.78
2023-05-19T00:18:23.481Z,101443.19
2023-05-19T00:20:51.583Z,101441.47
2023-05-19T00:23:18.455Z,101436.06
2023-05-19T00:25:48.417Z,101435.19
2023-05-19T00:28:15.222Z,101430.28
2023-05-19T00:30:45.340Z,101431.28
2023-05-19T00:33:12.561Z,101443.63
2023-05-19T00:35:40.960Z,101439.19
2023-05-19T00:38:07.927Z,101429.28
2023-05-19T00:40:36.903Z,101431.09
2023-05-19T00:43:05.809Z,101427.59
2023-05-19T00:45:32.730Z,101431.22
2023-05-19T00:48:18.133Z,101422.97
2023-05-19T00:50:49.886Z,101423.78
2023-05-19T00:53:21.862Z,101416.78
2023-05-19T00:56:09.622Z,101412.31
2023-05-19T00:58:37.740Z,101416.72
2023-05-19T01:01:05.384Z,101416.91
2023-05-19T01:03:37.349Z,101406.53
2023-05-19T01:06:08.965Z,101412.75
2023-05-19T01:08:37.689Z,101413.66
2023-05-19T01:11:07.171Z,101415.50
2023-05-19T01:13:35.277Z,101418.25
2023-05-19T01:16:12.889Z,101414.72
2023-05-19T01:18:57.076Z,101410.00
2023-05-19T01:21:45.898Z,101415.22
2023-05-19T01:24:39.530Z,101412.00
2023-05-19T01:27:27.428Z,101420.38
2023-05-19T01:30:34.039Z,101416.25
2023-05-19T01:33:03.630Z,101417.97
2023-05-19T01:35:31.381Z,101409.09
2023-05-19T01:38:00.672Z,101412.69
2023-05-19T01:40:29.356Z,101417.97
2023-05-19T01:42:58.334Z,101421.38
2023-05-19T01:45:27.211Z,101416.84
2023-05-19T01:47:58.973Z,101414.09
2023-05-19T01:50:27.520Z,101416.22
2023-05-19T01:52:55.194Z,101404.41
2023-05-19T01:55:24.170Z,101414.28
2023-05-19T01:57:51.129Z,101414.66
2023-05-19T02:00:31.771Z,101413.69
2023-05-19T02:03:01.906Z,101420.03
2023-05-19T02:06:02.571Z,101420.63
2023-05-19T02:08:47.958Z,101414.78
2023-05-19T02:11:26.277Z,101408.91
2023-05-19T02:13:57.163Z,101415.66
2023-05-19T02:16:29.428Z,101403.22
2023-05-19T02:18:59.857Z,101417.38
2023-05-19T02:21:27.037Z,101416.31
2023-05-19T02:24:06.830Z,101415.56
2023-05-19T02:26:37.162Z,101408.25
2023-05-19T02:29:04.288Z,101411.31
2023-05-19T02:31:31.240Z,101409.03
2023-05-19T02:34:00.037Z,101416.28
2023-05-19T02:36:30.834Z,101408.81
2023-05-19T02:38:58.744Z,101410.16
2023-05-19T02:41:26.334Z,101410.78
2023-05-19T02:43:53.388Z,101411.09
2023-05-19T02:46:20.851Z,101407.28
2023-05-19T02:48:54.057Z,101410.34
2023-05-19T02:51:25.230Z,101412.59
2023-05-19T02:53:52.246Z,101414.22
2023-05-19T02:56:23.038Z,101420.81
2023-05-19T02:58:51.077Z,101405.91
2023-05-19T03:01:17.937Z,101423.97
2023-05-19T03:03:45.087Z,101411.00
2023-05-19T03:06:14.465Z,101413.13
2023-05-19T03:08:42.403Z,101415.84
2023-05-19T03:11:09.453Z,101409.59
2023-05-19T03:13:39.412Z,101412.03
2023-05-19T03:16:10.675Z,101411.19
2023-05-19T03:18:38.560Z,101413.59
2023-05-19T03:21:06.308Z,101409.75
2023-05-19T03:23:33.204Z,101405.28
2023-05-19T03:26:00.369Z,101408.59
2023-05-19T03:28:31.813Z,101406.47
2023-05-19T03:30:58.776Z,101413.69
2023-05-19T03:33:25.778Z,101414.09
2023-05-19T03:35:53.341Z,101411.94
2023-05-19T03:38:20.316Z,101419.19
2023-05-19T03:40:47.248Z,101416.81
2023-05-19T03:43:14.741Z,101422.31
2023-05-19T03:45:41.742Z,101418.09
2023-05-19T03:48:08.724Z,101420.97
2023-05-19T03:50:37.550Z,101420.41
2023-05-19T03:53:07.472Z,101419.81
2023-05-19T03:55:42.303Z,101423.34
2023-05-19T03:58:10.969Z,101418.31
2023-05-19T04:00:38.187Z,101423.00
2023-05-19T04:03:05.069Z,101426.47
2023-05-19T04:05:32.103Z,101428.53
2023-05-19T04:08:02.323Z,101434.00
2023-05-19T04:10:37.058Z,101434.47
2023-05-19T04:13:03.951Z,101443.59
2023-05-19T04:15:33.534Z,101446.56
2023-05-19T04:18:03.967Z,101441.41
2023-05-19T04:20:31.336Z,101445.69
2023-05-19T04:22:58.567Z,101444.72
2023-05-19T04:25:28.579Z,101446.72
2023-05-19T04:27:58.241Z,101448.34
2023-05-19T04:30:25.619Z,101450.28
2023-05-19T04:32:52.756Z,101448.97
2023-05-19T04:35:20.092Z,101446.94
2023-05-19T04:37:47.159Z,101442.56
2023-05-19T04:40:14.504Z,101453.34
2023-05-19T04:42:43.160Z,101449.47
2023-05-19T04:45:10.751Z,101446.81
2023-05-19T04:47:40.616Z,101458.09
2023-05-19T04:50:08.224Z,101460.34
2023-05-19T04:52:35.190Z,101448.22
2023-05-19T04:55:10.611Z,101455.41
2023-05-19T04:57:41.973Z,101458.66
2023-05-19T05:00:13.107Z,101460.53
2023-05-19T05:02:43.448Z,101462.06
2023-05-19T05:05:10.616Z,101467.47
2023-05-19T05:07:42.494Z,101457.94
2023-05-19T05:10:14.637Z,101468.63
2023-05-19T05:12:42.012Z,101466.84
2023-05-19T05:15:09.660Z,101469.69
2023-05-19T05:17:38.031Z,101467.75
2023-05-19T05:20:09.778Z,101470.34
2023-05-19T05:22:36.908Z,101469.59
2023-05-19T05:25:04.821Z,101474.00
2023-05-19T05:27:32.947Z,101463.94
2023-05-19T05:30:02.149Z,101467.91
2023-05-19T05:32:29.330Z,101476.88
2023-05-19T05:35:03.608Z,101467.28
2023-05-19T05:37:31.202Z,101472.81
2023-05-19T05:40:03.617Z,101478.78
2023-05-19T05:42:30.504Z,101481.25
2023-05-19T05:44:57.497Z,101482.72
2023-05-19T05:47:24.671Z,101481.56
2023-05-19T05:49:53.582Z,101485.44
2023-05-19T05:52:22.572Z,101484.97
2023-05-19T05:54:51.119Z,101481.84
2023-05-19T05:57:18.425Z,101482.19
2023-05-19T05:59:47.364Z,101486.78
2023-05-19T06:02:14.573Z,101490.69
2023-05-19T06:04:42.132Z,101488.69
2023-05-19T06:07:09.183Z,101494.66
2023-05-19T06:09:36.435Z,101496.16
2023-05-19T06:12:03.517Z,101492.88
2023-05-19T06:14:30.654Z,101496.78
2023-05-19T06:16:57.714Z,101499.06
2023-05-19T06:19:25.734Z,101504.34
2023-05-19T06:21:52.797Z,101500.31
2023-05-19T06:24:19.814Z,101503.97
2023-05-19T06:26:46.870Z,101509.34
2023-05-19T06:29:13.736Z,101509.94
2023-05-19T06:31:50.127Z,101506.56
2023-05-19T06:34:21.366Z,101507.56
2023-05-19T06:36:48.528Z,101513.06
2023-05-19T06:39:20.261Z,101503.31
2023-05-19T06:41:47.206Z,101506.97
2023-05-19T06:44:15.313Z,101505.66
2023-05-19T06:46:42.721Z,101509.66
2023-05-19T06:49:15.991Z,101499.94
2023-05-19T06:51:50.797Z,101500.19
2023-05-19T06:54:19.381Z,101505.94
2023-05-19T06:56:49.111Z,101506.50
2023-05-19T06:59:16.577Z,101515.47
2023-05-19T07:01:43.559Z,101514.34
2023-05-19T07:04:10.697Z,101510.81
2023-05-19T07:06:40.003Z,101514.53
2023-05-19T07:09:12.861Z,101516.75
2023-05-19T07:11:42.684Z,101506.72
2023-05-19T07:14:09.566Z,101507.75
2023-05-19T07:16:36.871Z,101510.06
2023-05-19T07:19:03.827Z,101509.50
2023-05-19T07:21:34.030Z,101509.31
2023-05-19T07:24:01.030Z,101509.28
2023-05-19T07:26:28.441Z,101512.66
2023-05-19T07:28:55.438Z,101510.44
2023-05-19T07:31:22.282Z,101514.97
2023-05-19T07:33:49.134Z,101506.22
2023-05-19T07:36:16.126Z,101507.63
2023-05-19T07:38:44.687Z,101508.88
2023-05-19T07:41:19.959Z,101514.50
2023-05-19T07:43:52.134Z,101507.50
2023-05-19T07:46:20.978Z,101500.81
2023-05-19T07:48:49.213Z,101513.03
2023-05-19T07:51:16.485Z,101507.63
2023-05-19T07:53:43.325Z,101512.13
2023-05-19T07:56:10.234Z,101510.50
2023-05-19T07:58:37.112Z,101506.69
2023-05-19T08:01:04.164Z,101506.41
2023-05-19T08:03:31.370Z,101510.81
2023-05-19T08:05:58.744Z,101498.94
2023-05-19T08:08:28.919Z,101512.13
2023-05-19T08:10:55.889Z,101504.72
2023-05-19T08:13:25.723Z,101506.00
2023-05-19T08:15:54.666Z,101507.03
2023-05-19T08:18:24.597Z,101511.19
2023-05-19T08:20:51.418Z,101504.75
2023-05-19T08:23:19.920Z,101498.56
2023-05-19T08:25:46.845Z,101496.59
2023-05-19T08:28:13.836Z,101495.75
2023-05-19T08:30:40.831Z,101505.44
2023-05-19T08:33:08.848Z,101509.09
2023-05-19T08:35:35.852Z,101510.31
2023-05-19T08:38:05.248Z,101505.91
2023-05-19T08:40:35.356Z,101515.75
2023-05-19T08:43:02.989Z,101511.78
2023-05-19T08:45:34.401Z,101514.97
2023-05-19T08:48:04.747Z,101516.72
2023-05-19T08:50:36.759Z,101518.06
2023-05-19T08:53:32.460Z,101514.22
2023-05-19T08:56:16.799Z,101521.47
2023-05-19T08:58:46.232Z,101516.59
2023-05-19T09:01:17.220Z,101518.41
2023-05-19T09:03:51.445Z,101519.19
2023-05-19T09:06:18.427Z,101521.56
2023-05-19T09:08:45.457Z,101512.72
2023-05-19T09:11:12.605Z,101521.16
2023-05-19T09:13:44.173Z,101520.97
2023-05-19T09:16:12.099Z,101514.66
2023-05-19T09:18:57.224Z,101515.78
2023-05-19T09:21:33.321Z,101515.44
2023-05-19T09:24:08.664Z,101510.72
2023-05-19T09:26:43.398Z,101507.66
2023-05-19T09:29:14.866Z,101497.25
2023-05-19T09:31:52.027Z,101498.44
2023-05-19T09:34:19.657Z,101497.34
2023-05-19T09:36:49.902Z,101494.84
2023-05-19T09:39:17.749Z,101492.03
2023-05-19T09:41:47.642Z,101492.91
2023-05-19T09:44:20.956Z,101498.31
2023-05-19T09:46:52.094Z,101498.53
2023-05-19T09:49:24.165Z,101493.97
2023-05-19T09:52:13.119Z,101494.16
2023-05-19T09:54:45.583Z,101502.56
2023-05-19T09:57:13.034Z,101495.84
2023-05-19T09:59:41.300Z,101489.91
2023-05-19T10:02:17.838Z,101499.44
2023-05-19T10:04:46.715Z,101493.34
2023-05-19T10:07:16.312Z,101498.03
2023-05-19T10:09:45.208Z,101496.97
2023-05-19T10:12:20.540Z,101491.38
2023-05-19T10:14:49.202Z,101477.47
2023-05-19T10:17:19.060Z,101479.25
2023-05-19T10:19:51.872Z,101481.28
2023-05-19T10:22:20.452Z,101487.28
2023-05-19T10:24:47.458Z,101479.78
2023-05-19T10:27:15.693Z,101480.88
2023-05-19T10:29:49.502Z,101486.03
2023-05-19T10:32:25.620Z,101488.69
2023-05-19T10:35:32.003Z,101471.50
2023-05-19T10:38:21.577Z,101483.16
2023-05-19T10:41:15.185Z,101476.91
2023-05-19T10:43:50.013Z,101477.06
2023-05-19T10:46:16.996Z,101485.22
2023-05-19T10:48:47.268Z,101484.06
2023-05-19T10:51:31.688Z,101486.56
2023-05-19T10:53:59.244Z,101485.00
2023-05-19T10:56:36.575Z,101486.16
2023-05-19T10:59:04.074Z,101477.25
2023-05-19T11:01:35.497Z,101483.81
2023-05-19T11:04:15.993Z,101485.63
2023-05-19T11:07:02.173Z,101483.09
2023-05-19T11:09:39.922Z,101474.50
2023-05-19T11:12:11.378Z,101480.53
2023-05-19T11:14:41.463Z,101482.59
2023-05-19T11:17:14.794Z,101472.66
2023-05-19T11:19:56.766Z,101474.84
2023-05-19T11:22:26.234Z,101470.03
2023-05-19T11:24:56.824Z,101477.97
2023-05-19T11:27:31.909Z,101479.09
2023-05-19T11:30:02.370Z,101476.22
2023-05-19T11:32:36.090Z,101475.72
2023-05-19T11:35:03.671Z,101472.88
2023-05-19T11:37:40.762Z,101473.44
2023-05-19T11:40:09.063Z,101471.13
2023-05-19T11:42:39.258Z,101472.00
2023-05-19T11:45:06.804Z,101469.44
2023-05-19T11:47:46.474Z,101466.25
2023-05-19T11:50:22.430Z,101459.31
2023-05-19T11:53:07.728Z,101458.47
2023-05-19T11:55:35.224Z,101465.81
2023-05-19T11:58:13.549Z,101461.47
2023-05-19T12:00:41.801Z,101455.41
2023-05-19T12:03:14.307Z,101453.16
2023-05-19T12:05:48.225Z,101462.47
2023-05-19T12:08:18.875Z,101452.91
2023-05-19T12:10:52.698Z,101462.84
2023-05-19T12:13:23.768Z,101453.19
2023-05-19T12:15:54.133Z,101462.50
2023-05-19T12:18:21.803Z,101451.31
2023-05-19T12:20:49.117Z,101454.63
2023-05-19T12:23:32.644Z,101456.66
2023-05-19T12:26:03.502Z,101449.09
2023-05-19T12:28:34.256Z,101452.34
2023-05-19T12:31:03.181Z,101457.75
2023-05-19T12:33:33.666Z,101450.75
2023-05-19T12:36:02.335Z,101453.75
2023-05-19T12:41:17.684Z,101459.31
2023-05-19T12:43:47.636Z,101458.84
2023-05-19T12:46:16.997Z,101454.13
2023-05-19T12:48:47.883Z,101459.28
2023-05-19T12:51:19.367Z,101457.06
2023-05-19T12:53:47.688Z,101451.09
2023-05-19T12:56:16.125Z,101459.41
2023-05-19T12:58:43.813Z,101450.97
2023-05-19T13:01:18.763Z,101438.94
2023-05-19T13:03:46.387Z,101445.44
2023-05-19T13:06:15.622Z,101441.94
2023-05-19T13:08:42.519Z,101443.00
2023-05-19T13:11:09.467Z,101439.41
2023-05-19T13:13:42.204Z,101435.41
2023-05-19T13:16:09.232Z,101435.69
2023-05-19T13:18:37.870Z,101438.34
2023-05-19T13:21:06.024Z,101443.09
2023-05-19T13:23:32.888Z,101430.81
2023-05-19T13:26:00.211Z,101433.56
2023-05-19T13:28:27.182Z,101432.19
2023-05-19T13:30:54.866Z,101430.19
2023-05-19T13:33:22.032Z,101432.59
2023-05-19T13:35:49.602Z,101424.28
2023-05-19T13:38:16.543Z,101419.88
2023-05-19T13:40:49.385Z,101413.31
2023-05-19T13:43:16.826Z,101412.50
2023-05-19T13:45:46.156Z,101410.81
2023-05-19T13:48:13.550Z,101414.63
2023-05-19T13:50:40.487Z,101413.66
2023-05-19T13:53:07.450Z,101409.44
2023-05-19T13:55:34.482Z,101407.81
2023-05-19T13:58:04.346Z,101416.91
2023-05-19T14:00:36.337Z,101416.34
2023-05-19T14:03:03.996Z,101419.84
2023-05-19T14:05:31.677Z,101416.41
2023-05-19T14:08:00.767Z,101412.25
2023-05-19T14:10:38.048Z,101414.47
2023-05-19T14:13:30.403Z,101407.06
2023-05-19T14:15:55.414Z,101409.09
2023-05-19T14:18:22.368Z,101399.28
2023-05-19T14:20:49.765Z,101396.88
2023-05-19T14:23:25.147Z,101393.41
2023-05-19T14:25:56.236Z,101391.06
2023-05-19T14:28:23.321Z,101394.13
2023-05-19T14:30:51.395Z,101385.09
2023-05-19T14:33:19.746Z,101380.94
2023-05-19T14:35:47.765Z,101379.47
2023-05-19T14:38:14.780Z,101377.34
2023-05-19T14:40:44.356Z,101378.16
2023-05-19T14:43:11.931Z,101385.03
2023-05-19T14:45:40.501Z,101383.56
2023-05-19T14:48:13.924Z,101377.25
2023-05-19T14:50:46.157Z,101382.44
2023-05-19T14:53:15.416Z,101386.25
2023-05-19T14:55:42.957Z,101385.50
2023-05-19T14:58:26.866Z,101372.16
2023-05-19T15:00:55.209Z,101374.16
2023-05-19T15:03:23.442Z,101365.47
2023-05-19T15:05:50.452Z,101367.56
2023-05-19T15:08:18.118Z,101369.00
2023-05-19T15:10:49.440Z,101374.16
2023-05-19T15:13:19.341Z,101366.22
2023-05-19T15:15:46.449Z,101361.38
2023-05-19T15:18:19.477Z,101366.63
2023-05-19T15:20:47.311Z,101360.97
2023-05-19T15:23:15.311Z,101355.19
2023-05-19T15:25:43.483Z,101351.66
2023-05-19T15:28:10.874Z,101356.34
2023-05-19T15:30:38.484Z,101352.94
2023-05-19T15:33:08.684Z,101350.91
2023-05-19T15:35:38.828Z,101348.03
2023-05-19T15:38:08.637Z,101349.69
2023-05-19T15:40:36.365Z,101340.13
2023-05-19T15:43:04.414Z,101331.06
2023-05-19T15:45:36.544Z,101339.84
2023-05-19T15:48:04.749Z,101332.91
2023-05-19T15:50:32.205Z,101326.19
2023-05-19T15:52:59.725Z,101322.75
2023-05-19T15:55:26.655Z,101337.84
2023-05-19T15:58:00.817Z,101338.66
2023-05-19T16:00:30.729Z,101337.84
2023-05-19T16:02:58.103Z,101327.47
2023-05-19T16:05:26.843Z,101329.22
2023-05-19T16:07:55.055Z,101335.44
2023-05-19T16:10:22.184Z,101339.16
2023-05-19T16:12:49.139Z,101334.34
2023-05-19T16:15:21.765Z,101335.31
2023-05-19T16:17:53.042Z,101346.34
2023-05-19T16:20:26.713Z,101345.16
2023-05-19T16:22:58.475Z,101342.53
2023-05-19T16:25:25.338Z,101340.00
2023-05-19T16:27:53.265Z,101350.75
2023-05-19T16:30:26.718Z,101341.91
2023-05-19T16:32:56.279Z,101338.69
2023-05-19T16:35:23.639Z,101335.38
2023-05-19T16:37:50.933Z,101325.88
2023-05-19T16:40:19.401Z,101335.03
2023-05-19T16:42:53.114Z,101333.13
2023-05-19T16:45:20.546Z,101342.06
2023-05-19T16:47:47.601Z,101318.78
2023-05-19T16:50:14.679Z,101333.88
2023-05-19T16:52:41.657Z,101330.25
2023-05-19T16:55:08.951Z,101328.66
2023-05-19T16:57:36.230Z,101326.88
2023-05-19T17:02:56.858Z,101337.41
2023-05-19T17:05:23.911Z,101332.91
2023-05-19T17:07:53.385Z,101333.66
2023-05-19T17:10:22.921Z,101334.72
2023-05-19T17:12:49.813Z,101330.50
2023-05-19T17:15:20.862Z,101321.47
2023-05-19T17:17:52.495Z,101326.06
2023-05-19T17:20:19.505Z,101326.44
2023-05-19T17:22:51.414Z,101329.56
2023-05-19T17:25:19.437Z,101329.16
2023-05-19T17:27:46.433Z,101327.66
2023-05-19T17:30:15.829Z,101340.25
2023-05-19T17:32:43.953Z,101334.44
2023-05-19T17:35:13.809Z,101338.88
2023-05-19T17:37:45.953Z,101343.19
2023-05-19T17:40:16.781Z,101337.00
2023-05-19T17:42:53.866Z,101332.16
2023-05-19T17:45:24.088Z,101335.13
2023-05-19T17:47:51.099Z,101342.16
2023-05-19T17:50:21.388Z,101337.06
2023-05-19T17:52:50.484Z,101338.72
2023-05-19T17:55:18.303Z,101335.44
2023-05-19T17:57:46.830Z,101330.75
2023-05-19T18:00:23.279Z,101326.00
2023-05-19T18:02:57.370Z,101329.06
2023-05-19T18:05:26.002Z,101332.69
2023-05-19T18:07:59.036Z,101330.72
2023-05-19T18:10:30.299Z,101327.13
2023-05-19T18:12:58.772Z,101330.88
2023-05-19T18:15:28.762Z,101334.28
2023-05-19T18:17:55.929Z,101327.72
2023-05-19T18:20:22.832Z,101334.00
2023-05-19T18:22:53.059Z,101325.19
2023-05-19T18:25:21.541Z,101331.88
2023-05-19T18:27:48.960Z,101340.88
2023-05-19T18:30:20.743Z,101336.84
2023-05-19T18:32:58.746Z,101340.59
2023-05-19T18:35:27.088Z,101342.28
2023-05-19T18:38:07.913Z,101341.34
2023-05-19T18:40:44.744Z,101343.06
2023-05-19T18:43:15.002Z,101336.94
2023-05-19T18:45:42.387Z,101338.66
2023-05-19T18:48:09.454Z,101337.94
2023-05-19T18:50:41.061Z,101341.44
2023-05-19T18:53:11.273Z,101341.81
2023-05-19T18:55:38.754Z,101339.78
2023-05-19T18:58:06.437Z,101334.00
2023-05-19T19:00:37.631Z,101340.31
2023-05-19T19:03:07.832Z,101345.59
2023-05-19T19:05:45.050Z,101345.47
2023-05-19T19:08:12.191Z,101351.56
2023-05-19T19:10:41.036Z,101347.66
2023-05-19T19:13:14.018Z,101350.19
2023-05-19T19:15:41.862Z,101346.53
2023-05-19T19:18:10.447Z,101353.53
2023-05-19T19:20:37.486Z,101353.56
2023-05-19T19:23:11.021Z,101353.78
2023-05-19T19:25:44.377Z,101357.97
2023-05-19T19:28:12.118Z,101357.19
2023-05-19T19:30:42.167Z,101366.72
2023-05-19T19:33:09.339Z,101363.16
2023-05-19T19:35:36.229Z,101372.56
2023-05-19T19:38:03.254Z,101373.06
2023-05-19T19:40:30.164Z,101371.56
2023-05-19T19:42:58.915Z,101373.75
2023-05-19T19:45:30.920Z,101377.84
2023-05-19T19:47:58.773Z,101379.25
2023-05-19T19:50:29.976Z,101381.16
2023-05-19T19:53:02.587Z,101379.63
2023-05-19T19:55:33.438Z,101381.28
2023-05-19T19:58:00.452Z,101377.78
2023-05-19T20:00:27.373Z,101379.84
2023-05-19T20:03:03.445Z,101380.06
2023-05-19T20:05:34.797Z,101379.03
2023-05-19T20:08:01.880Z,101371.22
2023-05-19T20:10:28.914Z,101380.88
2023-05-19T20:12:59.833Z,101373.63
2023-05-19T20:15:27.014Z,101375.56
2023-05-19T20:17:54.564Z,101384.47
2023-05-19T20:20:26.392Z,101376.72
2023-05-19T20:22:53.822Z,101381.22
2023-05-19T20:25:22.878Z,101377.00
2023-05-19T20:27:49.840Z,101380.31
2023-05-19T20:30:16.997Z,101381.91
2023-05-19T20:32:44.272Z,101384.81
2023-05-19T20:35:15.283Z,101386.84
2023-05-19T20:37:46.828Z,101384.84
2023-05-19T20:40:14.077Z,101384.34
2023-05-19T20:42:47.975Z,101368.94
2023-05-19T20:45:14.923Z,101378.94
2023-05-19T20:47:42.034Z,101368.44
2023-05-19T20:50:09.323Z,101371.03
2023-05-19T20:52:36.353Z,101379.00
2023-05-19T20:55:03.609Z,101380.97
2023-05-19T20:57:30.826Z,101378.44
2023-05-19T20:59:57.694Z,101378.38
2023-05-19T21:02:24.809Z,101382.81
2023-05-19T21:04:52.873Z,101377.28
2023-05-19T21:07:23.367Z,101379.81
2023-05-19T21:09:51.827Z,101383.09
2023-05-19T21:12:20.566Z,101372.63
2023-05-19T21:14:48.996Z,101371.09
2023-05-19T21:17:16.303Z,101373.22
2023-05-19T21:19:43.325Z,101376.72
2023-05-19T21:22:14.176Z,101374.22
2023-05-19T21:24:41.351Z,101374.91
2023-05-19T21:27:09.004Z,101385.53
2023-05-19T21:29:36.256Z,101384.78
2023-05-19T21:32:03.315Z,101387.53
2023-05-19T21:34:30.297Z,101385.03
2023-05-19T21:36:58.312Z,101381.69
2023-05-19T21:39:28.308Z,101379.69
2023-05-19T21:42:06.866Z,101374.63
2023-05-19T21:44:34.249Z,101381.69
2023-05-19T21:47:01.591Z,101380.75
2023-05-19T21:49:43.024Z,101374.59
2023-05-19T21:52:23.827Z,101381.47
2023-05-19T21:54:52.256Z,101390.00
2023-05-19T21:57:19.424Z,101388.09
2023-05-19T21:59:46.621Z,101385.72
2023-05-19T22:02:13.954Z,101380.66
2023-05-19T22:04:44.999Z,101386.09
2023-05-19T22:07:11.938Z,101375.56
2023-05-19T22:09:39.676Z,101377.16
2023-05-19T22:12:07.430Z,101373.44
2023-05-19T22:14:38.634Z,101369.22
2023-05-19T22:17:05.847Z,101372.91
2023-05-19T22:19:32.854Z,101374.53
2023-05-19T22:22:10.216Z,101367.19
2023-05-19T22:24:43.400Z,101371.00
2023-05-19T22:27:13.527Z,101369.63
2023-05-19T22:29:47.096Z,101372.25
2023-05-19T22:32:22.362Z,101370.44
2023-05-19T22:34:49.381Z,101364.13
2023-05-19T22:37:22.714Z,101361.38
2023-05-19T22:39:49.756Z,101362.19
2023-05-19T22:42:16.809Z,101359.50
2023-05-19T22:44:43.805Z,101362.75
2023-05-19T22:47:14.001Z,101354.13
2023-05-19T22:49:42.567Z,101359.50
2023-05-19T22:52:11.067Z,101354.06
2023-05-19T22:54:38.516Z,101354.78
2023-05-19T22:57:11.625Z,101359.13
2023-05-19T22:59:41.689Z,101357.38
2023-05-19T23:02:10.012Z,101353.22
2023-05-19T23:04:39.014Z,101354.44
2023-05-19T23:07:10.267Z,101355.19
2023-05-19T23:09:43.281Z,101354.13
2023-05-19T23:12:13.125Z,101352.56
2023-05-19T23:14:40.185Z,101353.03
2023-05-19T23:17:11.149Z,101344.38
2023-05-19T23:19:41.789Z,101344.91
2023-05-19T23:22:11.917Z,101343.03
2023-05-19T23:24:38.920Z,101337.03
2023-05-19T23:27:06.945Z,101334.56
2023-05-19T23:29:35.409Z,101326.38
2023-05-19T23:32:02.480Z,101330.72
2023-05-19T23:34:29.611Z,101324.28
2023-05-19T23:37:01.304Z,101326.13
2023-05-19T23:39:28.165Z,101319.50
2023-05-19T23:41:55.124Z,101322.25
2023-05-19T23:44:23.973Z,101318.47
2023-05-19T23:46:51.124Z,101316.81
2023-05-19T23:49:18.092Z,101305.31
2023-05-19T23:51:45.157Z,101311.00
2023-05-19T23:54:14.909Z,101309.09
2023-05-19T23:56:42.090Z,101309.50
2023-05-19T23:59:13.525Z,101310.63
